createdAt,value
2019-01-04T00:00:07.874Z,461.1
2019-01-04T00:01:10.037Z,460.8
2019-01-04T00:02:12.193Z,460.9
2019-01-04T00:03:14.623Z,460.4
2019-01-04T00:04:16.758Z,460.5
2019-01-04T00:05:18.920Z,460.4
2019-01-04T00:06:21.355Z,460.2
2019-01-04T00:07:23.241Z,460
2019-01-04T00:08:25.672Z,459.9
2019-01-04T00:09:28.091Z,459.7
2019-01-04T00:10:30.522Z,459.7
2019-01-04T00:11:32.695Z,459.5
2019-01-04T00:12:35.129Z,459.6
2019-01-04T00:13:37.551Z,459.5
2019-01-04T00:14:39.994Z,459.8
2019-01-04T00:15:42.425Z,459.6
2019-01-04T00:16:44.303Z,459.6
2019-01-04T00:17:46.745Z,459.5
2019-01-04T00:18:50.094Z,459.6
2019-01-04T00:19:52.533Z,459.7
2019-01-04T00:20:54.965Z,459.5
2019-01-04T00:21:57.125Z,459.7
2019-01-04T00:22:59.550Z,459.5
2019-01-04T00:24:02.005Z,459.7
2019-01-04T00:25:04.431Z,460
2019-01-04T00:26:06.599Z,459.8
2019-01-04T00:27:08.737Z,459.9
2019-01-04T00:28:11.162Z,459.9
2019-01-04T00:29:13.584Z,460.2
2019-01-04T00:30:16.019Z,460.2
2019-01-04T00:31:18.444Z,461.3
2019-01-04T00:32:20.873Z,460.4
2019-01-04T00:33:23.295Z,460.6
2019-01-04T00:34:25.746Z,460.7
2019-01-04T00:35:28.205Z,460.4
2019-01-04T00:36:30.643Z,460.5
2019-01-04T00:37:33.078Z,460.2
2019-01-04T00:38:35.509Z,460.6
2019-01-04T00:39:37.921Z,460.5
2019-01-04T00:40:40.056Z,461
2019-01-04T00:41:42.487Z,460.7
2019-01-04T00:42:44.904Z,460.6
2019-01-04T00:43:47.332Z,461.4
2019-01-04T00:44:49.758Z,461
2019-01-04T00:45:52.175Z,461.1
2019-01-04T00:46:54.316Z,461.1
2019-01-04T00:47:56.739Z,460.7
2019-01-04T00:48:58.888Z,460.9
2019-01-04T00:50:01.136Z,460.8
2019-01-04T00:51:03.553Z,460.9
2019-01-04T00:52:05.967Z,460.9
2019-01-04T00:53:08.403Z,461
2019-01-04T00:54:10.549Z,460.9
2019-01-04T00:55:12.708Z,460.8
2019-01-04T00:56:15.129Z,460.5
2019-01-04T00:57:17.563Z,460.9
2019-01-04T00:58:19.711Z,460.7
2019-01-04T00:59:22.145Z,460.9
2019-01-04T01:00:24.570Z,461.1
2019-01-04T01:01:26.994Z,460.9
2019-01-04T01:02:29.427Z,460.8
2019-01-04T01:03:31.860Z,460.9
2019-01-04T01:04:34.024Z,460.4
2019-01-04T01:05:36.165Z,460.3
2019-01-04T01:06:38.597Z,460.3
2019-01-04T01:07:41.018Z,460
2019-01-04T01:08:43.458Z,460.2
2019-01-04T01:09:45.902Z,460.3
2019-01-04T01:10:48.334Z,459.8
2019-01-04T01:11:50.751Z,459.9
2019-01-04T01:12:53.175Z,459.6
2019-01-04T01:13:55.327Z,459.7
2019-01-04T01:14:57.765Z,459.9
2019-01-04T01:16:00.191Z,459.7
2019-01-04T01:17:02.344Z,459.6
2019-01-04T01:18:04.793Z,460
2019-01-04T01:19:06.935Z,459.8
2019-01-04T01:20:09.365Z,460.1
2019-01-04T01:21:11.801Z,459.9
2019-01-04T01:22:14.217Z,460
2019-01-04T01:23:16.674Z,459.6
2019-01-04T01:24:19.104Z,460.1
2019-01-04T01:25:21.255Z,459.8
2019-01-04T01:26:22.859Z,460.1
2019-01-04T01:27:24.746Z,460.3
2019-01-04T01:28:26.886Z,460.2
2019-01-04T01:29:29.040Z,460.2
2019-01-04T01:30:31.206Z,460.1
2019-01-04T01:31:33.634Z,459.8
2019-01-04T01:32:36.066Z,459.3
2019-01-04T01:33:38.477Z,460.2
2019-01-04T01:34:40.901Z,459.7
2019-01-04T01:35:42.751Z,460.3
2019-01-04T01:36:45.182Z,460
2019-01-04T01:37:47.611Z,460.1
2019-01-04T01:38:49.777Z,459.7
2019-01-04T01:39:51.909Z,459.6
2019-01-04T01:40:54.337Z,459.5
2019-01-04T01:41:56.775Z,459.6
2019-01-04T01:42:59.208Z,459.7
2019-01-04T01:44:01.359Z,459.7
2019-01-04T01:45:03.793Z,459.4
2019-01-04T01:46:06.204Z,459.6
2019-01-04T01:47:08.346Z,459.4
2019-01-04T01:48:10.505Z,459.6
2019-01-04T01:49:12.930Z,459.2
2019-01-04T01:50:15.361Z,459
2019-01-04T01:51:17.795Z,459.4
2019-01-04T01:52:20.220Z,459.4
2019-01-04T01:53:22.635Z,459.6
2019-01-04T01:54:25.056Z,459.1
2019-01-04T01:55:27.217Z,459.3
2019-01-04T01:56:29.646Z,459.4
2019-01-04T01:57:31.799Z,459.4
2019-01-04T01:58:33.958Z,459.7
2019-01-04T01:59:36.380Z,459.8
2019-01-04T02:00:38.802Z,459.6
2019-01-04T02:01:41.227Z,459.8
2019-01-04T02:02:43.396Z,459.3
2019-01-04T02:03:45.824Z,459.5
2019-01-04T02:04:47.710Z,459.4
2019-01-04T02:05:50.124Z,459.9
2019-01-04T02:06:52.554Z,459.8
2019-01-04T02:07:54.988Z,459.5
2019-01-04T02:08:57.416Z,459.7
2019-01-04T02:09:59.835Z,459.5
2019-01-04T02:11:01.976Z,459.5
2019-01-04T02:12:04.401Z,459.6
2019-01-04T02:13:06.824Z,459.5
2019-01-04T02:14:09.250Z,459.3
2019-01-04T02:15:11.416Z,459.3
2019-01-04T02:16:13.866Z,459.3
2019-01-04T02:17:16.291Z,458.7
2019-01-04T02:18:18.723Z,459.2
2019-01-04T02:19:20.864Z,458.8
2019-01-04T02:20:23.302Z,458.7
2019-01-04T02:21:25.727Z,458.2
2019-01-04T02:22:28.155Z,457.8
2019-01-04T02:23:30.575Z,457.5
2019-01-04T02:24:33.013Z,457.5
2019-01-04T02:25:35.453Z,457.4
2019-01-04T02:26:37.883Z,457.5
2019-01-04T02:27:40.304Z,457.3
2019-01-04T02:28:42.475Z,457.6
2019-01-04T02:29:44.903Z,457.5
2019-01-04T02:30:46.781Z,457.8
2019-01-04T02:31:49.209Z,457.3
2019-01-04T02:32:51.633Z,457.5
2019-01-04T02:33:53.785Z,457.4
2019-01-04T02:34:56.212Z,457.6
2019-01-04T02:35:58.647Z,457.6
2019-01-04T02:37:01.095Z,457.7
2019-01-04T02:38:03.525Z,457.4
2019-01-04T02:39:05.692Z,457.7
2019-01-04T02:40:07.857Z,457.7
2019-01-04T02:41:10.275Z,457.7
2019-01-04T02:42:12.135Z,458.1
2019-01-04T02:43:14.282Z,458.1
2019-01-04T02:44:16.732Z,458
2019-01-04T02:45:19.165Z,458.3
2019-01-04T02:46:21.588Z,458.3
2019-01-04T02:47:24.023Z,458.6
2019-01-04T02:48:26.452Z,458.7
2019-01-04T02:49:28.607Z,458.7
2019-01-04T02:50:31.032Z,458.5
2019-01-04T02:51:33.213Z,458.7
2019-01-04T02:52:35.398Z,458.7
2019-01-04T02:53:37.825Z,458.7
2019-01-04T02:54:39.965Z,459.2
2019-01-04T02:55:42.095Z,459
2019-01-04T02:56:44.512Z,458.7
2019-01-04T02:57:46.941Z,458.7
2019-01-04T02:58:49.125Z,458.5
2019-01-04T02:59:51.552Z,458.7
2019-01-04T03:00:53.981Z,458.6
2019-01-04T03:01:56.406Z,458.8
2019-01-04T03:02:58.826Z,458.7
2019-01-04T03:04:01.255Z,458.9
2019-01-04T03:05:03.387Z,459
2019-01-04T03:06:05.835Z,459.5
2019-01-04T03:07:08.266Z,459.6
2019-01-04T03:08:10.695Z,460
2019-01-04T03:09:13.171Z,459.8
2019-01-04T03:10:15.331Z,459.6
2019-01-04T03:11:17.764Z,459.6
2019-01-04T03:12:20.220Z,460.2
2019-01-04T03:13:22.365Z,460.2
2019-01-04T03:14:24.803Z,460.4
2019-01-04T03:15:27.227Z,460.9
2019-01-04T03:16:29.366Z,460.9
2019-01-04T03:17:31.790Z,461.1
2019-01-04T03:18:34.222Z,461.6
2019-01-04T03:19:36.346Z,461.3
2019-01-04T03:20:38.505Z,461.4
2019-01-04T03:21:40.648Z,461.6
2019-01-04T03:22:43.064Z,461.6
2019-01-04T03:23:45.488Z,461.1
2019-01-04T03:24:47.635Z,461.2
2019-01-04T03:25:50.087Z,461.2
2019-01-04T03:26:52.265Z,460.9
2019-01-04T03:27:54.423Z,460.8
2019-01-04T03:28:56.570Z,461.2
2019-01-04T03:29:59.010Z,461.1
2019-01-04T03:31:01.447Z,461.4
2019-01-04T03:32:03.909Z,461.7
2019-01-04T03:33:06.065Z,461.4
2019-01-04T03:34:08.492Z,461.5
2019-01-04T03:35:10.652Z,461.8
2019-01-04T03:36:12.804Z,461.7
2019-01-04T03:37:15.224Z,461.9
2019-01-04T03:38:17.374Z,462.5
2019-01-04T03:39:19.516Z,462.2
2019-01-04T03:40:21.376Z,462.5
2019-01-04T03:41:23.794Z,462.4
2019-01-04T03:42:25.934Z,462.1
2019-01-04T03:43:28.362Z,462.1
2019-01-04T03:44:30.788Z,462.1
2019-01-04T03:45:32.943Z,462.4
2019-01-04T03:46:34.799Z,462.1
2019-01-04T03:47:36.954Z,461.8
2019-01-04T03:48:38.842Z,461.8
2019-01-04T03:49:41.271Z,461.3
2019-01-04T03:50:43.708Z,461.5
2019-01-04T03:51:45.835Z,461.7
2019-01-04T03:52:48.268Z,462
2019-01-04T03:53:50.418Z,461.6
2019-01-04T03:54:52.842Z,461.5
2019-01-04T03:55:55.002Z,461.5
2019-01-04T03:56:57.164Z,461.7
2019-01-04T03:57:59.309Z,462
2019-01-04T03:59:01.450Z,462.2
2019-01-04T04:00:03.624Z,461.9
2019-01-04T04:01:05.764Z,462.4
2019-01-04T04:02:08.192Z,461.9
2019-01-04T04:03:10.609Z,462.3
2019-01-04T04:04:13.039Z,462.6
2019-01-04T04:05:15.183Z,462.6
2019-01-04T04:06:17.607Z,462.6
2019-01-04T04:07:20.023Z,462.5
2019-01-04T04:08:21.901Z,462.3
2019-01-04T04:09:24.064Z,461.9
2019-01-04T04:10:26.206Z,462
2019-01-04T04:11:28.094Z,462.2
2019-01-04T04:12:30.534Z,462.1
2019-01-04T04:13:32.664Z,461.6
2019-01-04T04:14:34.528Z,462
2019-01-04T04:15:36.954Z,462.6
2019-01-04T04:16:39.375Z,462.4
2019-01-04T04:17:41.796Z,462.2
2019-01-04T04:18:43.940Z,462.2
2019-01-04T04:19:46.104Z,462.5
2019-01-04T04:20:48.543Z,462.7
2019-01-04T04:21:50.972Z,462.1
2019-01-04T04:22:53.404Z,462
2019-01-04T04:23:55.886Z,462.1
2019-01-04T04:24:58.308Z,461.8
2019-01-04T04:26:00.172Z,461.7
2019-01-04T04:27:02.596Z,461.5
2019-01-04T04:28:05.029Z,461.4
2019-01-04T04:29:07.187Z,461.2
2019-01-04T04:30:09.334Z,461.6
2019-01-04T04:31:11.497Z,461.4
2019-01-04T04:32:13.644Z,461.3
2019-01-04T04:33:15.797Z,461.3
2019-01-04T04:34:17.955Z,461.2
2019-01-04T04:35:19.820Z,461.1
2019-01-04T04:36:22.248Z,460.8
2019-01-04T04:37:24.684Z,460.7
2019-01-04T04:38:27.101Z,460.6
2019-01-04T04:39:29.989Z,460.8
2019-01-04T04:40:32.796Z,460.7
2019-01-04T04:41:35.248Z,460.8
2019-01-04T04:42:37.687Z,460.8
2019-01-04T04:43:40.106Z,461.2
2019-01-04T04:44:42.269Z,461.5
2019-01-04T04:45:44.436Z,460.9
2019-01-04T04:46:46.344Z,461.3
2019-01-04T04:47:48.632Z,460.7
2019-01-04T04:48:51.082Z,460.8
2019-01-04T04:49:52.997Z,460.8
2019-01-04T04:50:55.156Z,460.6
2019-01-04T04:51:57.293Z,460.8
2019-01-04T04:52:59.476Z,460.7
2019-01-04T04:54:01.902Z,460.7
2019-01-04T04:55:04.334Z,460.4
2019-01-04T04:56:06.764Z,460.5
2019-01-04T04:57:08.646Z,460.3
2019-01-04T04:58:11.074Z,460.4
2019-01-04T04:59:13.246Z,460.1
2019-01-04T05:00:15.391Z,459.9
2019-01-04T05:01:17.808Z,460
2019-01-04T05:02:20.230Z,460.1
2019-01-04T05:03:22.655Z,460
2019-01-04T05:04:25.082Z,459.4
2019-01-04T05:05:27.513Z,459.5
2019-01-04T05:06:29.954Z,459.9
2019-01-04T05:07:32.379Z,459.9
2019-01-04T05:08:34.534Z,460
2019-01-04T05:09:36.964Z,460.2
2019-01-04T05:10:38.867Z,460
2019-01-04T05:11:41.309Z,460.2
2019-01-04T05:12:43.730Z,460.3
2019-01-04T05:13:46.154Z,460.5
2019-01-04T05:14:48.318Z,460.9
2019-01-04T05:15:50.738Z,460.4
2019-01-04T05:16:52.893Z,460.5
2019-01-04T05:17:55.047Z,460.8
2019-01-04T05:18:57.250Z,460.3
2019-01-04T05:19:59.664Z,460.2
2019-01-04T05:21:02.095Z,460.3
2019-01-04T05:22:04.576Z,459.9
2019-01-04T05:23:06.995Z,460.3
2019-01-04T05:24:09.152Z,460.4
2019-01-04T05:25:11.585Z,460.2
2019-01-04T05:26:14.000Z,460.3
2019-01-04T05:27:16.414Z,460.1
2019-01-04T05:28:18.833Z,459.8
2019-01-04T05:29:20.685Z,459.8
2019-01-04T05:30:23.115Z,459.8
2019-01-04T05:31:25.534Z,460.4
2019-01-04T05:32:27.974Z,460
2019-01-04T05:33:30.402Z,460.4
2019-01-04T05:34:32.851Z,460.4
2019-01-04T05:35:35.258Z,460.3
2019-01-04T05:36:37.399Z,460.6
2019-01-04T05:37:39.835Z,460.3
2019-01-04T05:38:42.268Z,460.4
2019-01-04T05:39:44.695Z,460.1
2019-01-04T05:40:47.108Z,460.2
2019-01-04T05:41:49.542Z,460.6
2019-01-04T05:42:51.974Z,460.3
2019-01-04T05:43:54.404Z,460.5
2019-01-04T05:44:56.826Z,460.3
2019-01-04T05:45:58.955Z,461
2019-01-04T05:47:01.396Z,461
2019-01-04T05:48:03.543Z,460.8
2019-01-04T05:49:05.964Z,460.8
2019-01-04T05:50:08.386Z,460.6
2019-01-04T05:51:10.805Z,460.4
2019-01-04T05:52:13.244Z,460.5
2019-01-04T05:53:15.664Z,460.5
2019-01-04T05:54:17.817Z,460.6
2019-01-04T05:55:19.962Z,460.9
2019-01-04T05:56:22.122Z,461
2019-01-04T05:57:24.530Z,460.7
2019-01-04T05:58:26.704Z,461.3
2019-01-04T05:59:29.131Z,461.5
2019-01-04T06:00:31.576Z,461
2019-01-04T06:01:33.752Z,461.2
2019-01-04T06:02:35.635Z,461.5
2019-01-04T06:03:37.787Z,461.2
2019-01-04T06:04:39.949Z,461.3
2019-01-04T06:05:42.373Z,461.3
2019-01-04T06:06:44.511Z,461.3
2019-01-04T06:07:46.676Z,461.4
2019-01-04T06:08:48.835Z,461.7
2019-01-04T06:09:51.260Z,461.6
2019-01-04T06:10:53.714Z,461.4
2019-01-04T06:11:55.865Z,461.6
2019-01-04T06:12:58.296Z,461.4
2019-01-04T06:14:00.714Z,461.3
2019-01-04T06:15:03.146Z,461.4
2019-01-04T06:16:05.569Z,461.3
2019-01-04T06:17:07.453Z,461
2019-01-04T06:18:09.888Z,460.7
2019-01-04T06:19:12.054Z,460.8
2019-01-04T06:20:14.481Z,460.8
2019-01-04T06:21:16.907Z,460.6
2019-01-04T06:22:19.059Z,460.9
2019-01-04T06:23:20.933Z,460.1
2019-01-04T06:24:23.355Z,460.3
2019-01-04T06:25:25.539Z,460.5
2019-01-04T06:26:27.963Z,460.1
2019-01-04T06:27:30.125Z,460.1
2019-01-04T06:28:32.543Z,460.1
2019-01-04T06:29:34.965Z,460.2
2019-01-04T06:30:37.381Z,460.4
2019-01-04T06:31:39.550Z,460.7
2019-01-04T06:32:42.002Z,460.5
2019-01-04T06:33:44.133Z,460.2
2019-01-04T06:34:46.307Z,460.1
2019-01-04T06:35:48.458Z,460.3
2019-01-04T06:36:50.904Z,460.3
2019-01-04T06:37:53.065Z,460.1
2019-01-04T06:38:55.493Z,460.1
2019-01-04T06:39:57.921Z,460.1
2019-01-04T06:41:00.342Z,460.2
2019-01-04T06:42:02.499Z,460.2
2019-01-04T06:43:04.922Z,459.9
2019-01-04T06:44:07.068Z,459.3
2019-01-04T06:45:08.955Z,459.5
2019-01-04T06:46:11.385Z,459.5
2019-01-04T06:47:13.825Z,459.5
2019-01-04T06:48:16.265Z,460
2019-01-04T06:49:18.425Z,459.8
2019-01-04T06:50:20.852Z,459.6
2019-01-04T06:52:28.754Z,459.6
2019-01-04T06:53:31.178Z,459.5
2019-01-04T06:54:33.332Z,459.1
2019-01-04T06:55:35.745Z,459.2
2019-01-04T06:56:38.173Z,459.3
2019-01-04T06:57:40.331Z,459.2
2019-01-04T06:58:42.493Z,458.9
2019-01-04T06:59:44.913Z,459.3
2019-01-04T07:00:47.364Z,458.6
2019-01-04T07:01:49.774Z,458.8
2019-01-04T07:02:52.199Z,458.7
2019-01-04T07:03:54.643Z,458.2
2019-01-04T07:04:56.526Z,458.3
2019-01-04T07:05:58.679Z,458.1
2019-01-04T07:07:01.090Z,458.1
2019-01-04T07:08:02.409Z,457.6
2019-01-04T07:09:04.835Z,457.9
2019-01-04T07:10:06.743Z,457.2
2019-01-04T07:11:08.891Z,457.5
2019-01-04T07:12:11.067Z,456.9
2019-01-04T07:13:13.209Z,456.8
2019-01-04T07:14:15.341Z,457.2
2019-01-04T07:15:17.516Z,456.6
2019-01-04T07:16:19.682Z,457.2
2019-01-04T07:17:21.851Z,456.7
2019-01-04T07:18:24.352Z,457
2019-01-04T07:19:26.497Z,456.7
2019-01-04T07:20:28.923Z,456.9
2019-01-04T07:21:31.345Z,456.7
2019-01-04T07:22:33.765Z,457.1
2019-01-04T07:23:35.918Z,456.7
2019-01-04T07:24:37.818Z,456.9
2019-01-04T07:25:40.263Z,457.1
2019-01-04T07:26:42.695Z,457.1
2019-01-04T07:27:44.303Z,456.7
2019-01-04T07:28:48.065Z,456.7
2019-01-04T07:29:50.235Z,456.3
2019-01-04T07:30:52.389Z,456.5
2019-01-04T07:31:54.546Z,456.3
2019-01-04T07:32:56.965Z,455.8
2019-01-04T07:33:59.154Z,456.3
2019-01-04T07:35:01.650Z,455.8
2019-01-04T07:36:03.291Z,455.8
2019-01-04T07:37:05.445Z,455.4
2019-01-04T07:38:07.911Z,455.6
2019-01-04T07:39:10.331Z,455.6
2019-01-04T07:40:12.763Z,455.6
2019-01-04T07:41:15.247Z,455.3
2019-01-04T07:42:17.378Z,455.8
2019-01-04T07:43:19.545Z,455.8
2019-01-04T07:44:21.701Z,455.5
2019-01-04T07:45:24.150Z,455.7
2019-01-04T07:46:26.575Z,455.7
2019-01-04T07:47:28.995Z,455.6
2019-01-04T07:48:31.425Z,455.3
2019-01-04T07:49:33.577Z,455.2
2019-01-04T07:50:35.993Z,455.6
2019-01-04T07:51:38.153Z,455.4
2019-01-04T07:52:40.591Z,455.1
2019-01-04T07:53:43.033Z,455
2019-01-04T07:54:45.472Z,454.6
2019-01-04T07:55:47.935Z,454.3
2019-01-04T07:56:50.364Z,454.2
2019-01-04T07:57:52.789Z,454.1
2019-01-04T07:58:55.224Z,454.1
2019-01-04T07:59:57.361Z,453.9
2019-01-04T08:00:59.796Z,454
2019-01-04T08:02:02.216Z,453.8
2019-01-04T08:03:04.364Z,453.7
2019-01-04T08:04:06.516Z,453.5
2019-01-04T08:05:08.957Z,453.6
2019-01-04T08:06:11.388Z,453.9
2019-01-04T08:07:13.820Z,453.9
2019-01-04T08:08:16.249Z,454.4
2019-01-04T08:09:18.693Z,454.4
2019-01-04T08:10:21.136Z,454.5
2019-01-04T08:11:23.554Z,454.3
2019-01-04T08:12:25.686Z,454.5
2019-01-04T08:13:28.125Z,454.3
2019-01-04T08:14:30.295Z,455
2019-01-04T08:15:32.703Z,454.4
2019-01-04T08:16:34.863Z,454.5
2019-01-04T08:17:37.283Z,454
2019-01-04T08:18:39.418Z,454.4
2019-01-04T08:19:41.577Z,454
2019-01-04T08:20:44.011Z,454.3
2019-01-04T08:21:45.595Z,453.8
2019-01-04T08:22:47.753Z,454.2
2019-01-04T08:23:50.178Z,454.2
2019-01-04T08:24:52.602Z,454.2
2019-01-04T08:25:54.487Z,454.2
2019-01-04T08:26:56.916Z,454.1
2019-01-04T08:27:59.066Z,454.1
2019-01-04T08:29:01.491Z,453.9
2019-01-04T08:30:03.955Z,453.9
2019-01-04T08:31:05.558Z,453.3
2019-01-04T08:32:07.715Z,453.8
2019-01-04T08:33:10.143Z,454
2019-01-04T08:34:12.573Z,454.3
2019-01-04T08:35:14.714Z,453.9
2019-01-04T08:36:17.143Z,454
2019-01-04T08:37:19.310Z,453.7
2019-01-04T08:38:21.733Z,453.9
2019-01-04T08:39:24.166Z,453.5
2019-01-04T08:40:26.316Z,453.4
2019-01-04T08:41:28.765Z,453.1
2019-01-04T08:42:31.202Z,453.8
2019-01-04T08:43:33.636Z,453.8
2019-01-04T08:44:35.803Z,453.6
2019-01-04T08:45:37.962Z,453.6
2019-01-04T08:46:40.134Z,453.5
2019-01-04T08:47:42.564Z,453.6
2019-01-04T08:48:44.697Z,453.8
2019-01-04T08:49:47.130Z,453.6
2019-01-04T08:50:49.571Z,453.8
2019-01-04T08:51:52.004Z,453.2
2019-01-04T08:52:54.165Z,453.3
2019-01-04T08:53:56.603Z,453.3
2019-01-04T08:54:58.748Z,453.3
2019-01-04T08:56:00.897Z,452.7
2019-01-04T08:57:03.327Z,452.9
2019-01-04T08:58:05.760Z,452.7
2019-01-04T08:59:07.950Z,452.5
2019-01-04T09:00:10.375Z,452.5
2019-01-04T09:01:12.806Z,452.5
2019-01-04T09:02:15.235Z,452.9
2019-01-04T09:03:17.662Z,453.1
2019-01-04T09:04:19.555Z,452.9
2019-01-04T09:05:21.980Z,452.5
2019-01-04T09:06:24.405Z,452.7
2019-01-04T09:07:26.559Z,452.2
2019-01-04T09:08:28.709Z,451.6
2019-01-04T09:09:31.146Z,451.7
2019-01-04T09:10:33.583Z,451.6
2019-01-04T09:11:35.722Z,451.1
2019-01-04T09:12:38.146Z,451
2019-01-04T09:13:40.568Z,451
2019-01-04T09:14:42.470Z,451
2019-01-04T09:15:44.343Z,450.7
2019-01-04T09:16:46.779Z,450.2
2019-01-04T09:17:49.212Z,450
2019-01-04T09:18:51.660Z,450.2
2019-01-04T09:19:54.076Z,450
2019-01-04T09:20:56.496Z,450.2
2019-01-04T09:21:58.932Z,450
2019-01-04T09:23:00.830Z,450.2
2019-01-04T09:24:03.013Z,449.7
2019-01-04T09:25:05.462Z,450
2019-01-04T09:26:07.616Z,450
2019-01-04T09:27:10.055Z,449.8
2019-01-04T09:29:18.642Z,449.5
2019-01-04T09:30:21.073Z,449
2019-01-04T09:31:23.239Z,449
2019-01-04T09:32:25.683Z,448.9
2019-01-04T09:33:28.121Z,449.3
2019-01-04T09:34:30.286Z,449.1
2019-01-04T09:35:32.179Z,449.2
2019-01-04T09:36:34.614Z,449.3
2019-01-04T09:37:37.049Z,449.2
2019-01-04T09:38:39.216Z,449.1
2019-01-04T09:39:41.373Z,448.9
2019-01-04T09:40:43.806Z,449.2
2019-01-04T09:41:46.243Z,449.5
2019-01-04T09:42:47.832Z,449.4
2019-01-04T09:43:50.265Z,449.7
2019-01-04T09:44:52.707Z,449.8
2019-01-04T09:45:55.135Z,449.7
2019-01-04T09:46:57.286Z,449.6
2019-01-04T09:47:59.734Z,450.2
2019-01-04T09:49:02.165Z,449.8
2019-01-04T09:50:04.601Z,450.2
2019-01-04T09:51:07.064Z,450.2
2019-01-04T09:52:09.493Z,450.4
2019-01-04T09:53:11.934Z,450.7
2019-01-04T09:54:14.096Z,450.6
2019-01-04T09:55:16.510Z,451
2019-01-04T09:56:18.676Z,451.2
2019-01-04T09:58:26.088Z,451.6
2019-01-04T09:59:28.007Z,450.9
2019-01-04T10:00:30.148Z,451
2019-01-04T10:01:32.314Z,451.2
2019-01-04T10:02:34.457Z,451.5
2019-01-04T10:03:36.683Z,451.6
2019-01-04T10:04:39.113Z,451.6
2019-01-04T10:05:41.291Z,452.2
2019-01-04T10:06:43.459Z,452
2019-01-04T10:07:45.898Z,452.4
2019-01-04T10:08:48.342Z,452.2
2019-01-04T10:09:50.767Z,452.7
2019-01-04T10:10:53.211Z,452.8
2019-01-04T10:11:55.354Z,452.7
2019-01-04T10:12:57.817Z,452.8
2019-01-04T10:14:00.242Z,453
2019-01-04T10:15:02.669Z,453.1
2019-01-04T10:16:04.832Z,452.8
2019-01-04T10:17:07.264Z,453.1
2019-01-04T10:18:09.696Z,452.9
2019-01-04T10:19:12.113Z,453.2
2019-01-04T10:20:14.264Z,453.6
2019-01-04T10:21:16.416Z,453.4
2019-01-04T10:22:18.580Z,454.2
2019-01-04T10:23:20.730Z,454
2019-01-04T10:24:23.168Z,454.4
2019-01-04T10:25:25.335Z,455.2
2019-01-04T10:26:27.766Z,455.6
2019-01-04T10:27:30.202Z,456.2
2019-01-04T10:28:32.634Z,456.1
2019-01-04T10:29:34.562Z,456.4
2019-01-04T10:30:36.718Z,456.3
2019-01-04T10:31:39.146Z,456.4
2019-01-04T10:32:41.579Z,456.3
2019-01-04T10:33:44.002Z,456.4
2019-01-04T10:34:46.432Z,456.8
2019-01-04T10:35:48.866Z,456.9
2019-01-04T10:36:51.306Z,457
2019-01-04T10:37:53.474Z,457
2019-01-04T10:38:55.907Z,456.8
2019-01-04T10:39:58.547Z,456.4
2019-01-04T10:41:00.711Z,457.4
2019-01-04T10:42:03.346Z,457.5
2019-01-04T10:43:05.772Z,457.6
2019-01-04T10:44:08.199Z,458.1
2019-01-04T10:45:10.633Z,458.7
2019-01-04T10:46:13.070Z,458.9
2019-01-04T10:47:15.206Z,459.1
2019-01-04T10:48:17.384Z,459.6
2019-01-04T10:49:19.816Z,459.5
2019-01-04T10:50:22.241Z,459.2
2019-01-04T10:51:24.413Z,459.6
2019-01-04T10:52:26.572Z,459.8
2019-01-04T10:53:29.020Z,459.8
2019-01-04T10:54:31.186Z,459.9
2019-01-04T10:55:33.610Z,459.9
2019-01-04T10:56:35.465Z,460.3
2019-01-04T10:57:37.344Z,460.4
2019-01-04T10:58:39.772Z,460.8
2019-01-04T10:59:42.212Z,460.4
2019-01-04T11:00:44.650Z,460.4
2019-01-04T11:01:47.086Z,460.6
2019-01-04T11:02:49.020Z,460.9
2019-01-04T11:03:51.868Z,460.4
2019-01-04T11:04:53.743Z,460.8
2019-01-04T11:05:55.333Z,460.9
2019-01-04T11:06:57.486Z,461
2019-01-04T11:07:59.934Z,460.9
2019-01-04T11:09:02.372Z,460.9
2019-01-04T11:10:04.800Z,461.3
2019-01-04T11:11:07.247Z,461.1
2019-01-04T11:12:09.668Z,461.2
2019-01-04T11:13:12.091Z,461.6
2019-01-04T11:14:14.536Z,461.6
2019-01-04T11:15:16.961Z,461.8
2019-01-04T11:16:19.428Z,461.8
2019-01-04T11:17:21.850Z,462.1
2019-01-04T11:18:24.276Z,462.2
2019-01-04T11:19:26.157Z,462.2
2019-01-04T11:20:28.314Z,462.7
2019-01-04T11:21:30.467Z,463
2019-01-04T11:22:32.636Z,463.4
2019-01-04T11:23:35.095Z,463.7
2019-01-04T11:24:36.977Z,463.7
2019-01-04T11:25:38.856Z,463.6
2019-01-04T11:26:40.734Z,464
2019-01-04T11:27:43.170Z,464.5
2019-01-04T11:28:45.598Z,465
2019-01-04T11:29:48.016Z,464.1
2019-01-04T11:30:49.907Z,464
2019-01-04T11:31:52.325Z,463.8
2019-01-04T11:32:54.765Z,464.2
2019-01-04T11:33:57.200Z,463.7
2019-01-04T11:34:59.627Z,464.1
2019-01-04T11:36:02.064Z,463.9
2019-01-04T11:37:04.497Z,463.7
2019-01-04T11:38:06.914Z,463.6
2019-01-04T11:39:09.356Z,463.5
2019-01-04T11:40:11.486Z,463.8
2019-01-04T11:41:13.637Z,464.1
2019-01-04T11:42:16.067Z,464.4
2019-01-04T11:43:18.232Z,464
2019-01-04T11:44:20.656Z,464.1
2019-01-04T11:45:23.073Z,464
2019-01-04T11:46:25.215Z,464.2
2019-01-04T11:47:27.646Z,464
2019-01-04T11:48:30.066Z,463.8
2019-01-04T11:49:33.210Z,464.1
2019-01-04T11:50:35.660Z,463.8
2019-01-04T11:51:38.092Z,463.8
2019-01-04T11:52:40.517Z,464
2019-01-04T11:53:44.342Z,463.7
2019-01-04T11:54:46.784Z,464
2019-01-04T11:55:48.909Z,464
2019-01-04T11:56:51.342Z,464.1
2019-01-04T11:57:53.492Z,464.1
2019-01-04T11:58:55.925Z,464.9
2019-01-04T11:59:58.410Z,464.7
2019-01-04T12:01:00.875Z,465
2019-01-04T12:02:03.321Z,465
2019-01-04T12:03:05.475Z,464.8
2019-01-04T12:04:07.604Z,464.9
2019-01-04T12:05:10.032Z,465.3
2019-01-04T12:06:12.456Z,464.6
2019-01-04T12:07:14.874Z,465.2
2019-01-04T12:08:17.294Z,465.2
2019-01-04T12:09:19.727Z,465.3
2019-01-04T12:10:22.151Z,465.7
2019-01-04T12:11:24.571Z,465.9
2019-01-04T12:12:27.002Z,465.3
2019-01-04T12:13:29.430Z,465.5
2019-01-04T12:14:31.624Z,466.2
2019-01-04T12:15:34.063Z,465.7
2019-01-04T12:16:36.493Z,466
2019-01-04T12:17:38.950Z,466.1
2019-01-04T12:18:41.376Z,466.2
2019-01-04T12:19:43.796Z,466.3
2019-01-04T12:20:47.460Z,466.5
2019-01-04T12:21:49.623Z,466.8
2019-01-04T12:22:52.061Z,466.9
2019-01-04T12:23:54.494Z,466.7
2019-01-04T12:24:56.638Z,466.6
2019-01-04T12:25:59.062Z,466.7
2019-01-04T12:27:01.216Z,466.9
2019-01-04T12:28:03.650Z,466.7
2019-01-04T12:29:06.914Z,467
2019-01-04T12:30:09.050Z,467
2019-01-04T12:31:11.213Z,467.5
2019-01-04T12:32:13.679Z,467.5
2019-01-04T12:33:16.114Z,467.7
2019-01-04T12:34:18.729Z,467.9
2019-01-04T12:35:21.182Z,467.8
2019-01-04T12:36:23.340Z,468.6
2019-01-04T12:37:25.777Z,468.2
2019-01-04T12:38:28.212Z,468.2
2019-01-04T12:39:30.645Z,468.5
2019-01-04T12:40:32.784Z,468.5
2019-01-04T12:41:34.943Z,468.6
2019-01-04T12:42:37.113Z,468.7
2019-01-04T12:43:39.572Z,468.9
2019-01-04T12:44:41.996Z,469.6
2019-01-04T12:45:44.155Z,469.2
2019-01-04T12:46:46.310Z,468.9
2019-01-04T12:47:48.454Z,468.9
2019-01-04T12:48:51.044Z,468.8
2019-01-04T12:49:53.472Z,468.7
2019-01-04T12:50:55.902Z,469
2019-01-04T12:51:57.814Z,468.9
2019-01-04T12:53:00.259Z,469.2
2019-01-04T12:54:02.687Z,469.5
2019-01-04T12:55:04.863Z,469.6
2019-01-04T12:56:07.030Z,469.1
2019-01-04T12:57:09.184Z,469.3
2019-01-04T12:58:11.618Z,469.5
2019-01-04T12:59:14.046Z,469.1
2019-01-04T13:00:15.940Z,469.1
2019-01-04T13:01:18.104Z,469.2
2019-01-04T13:02:20.546Z,469.1
2019-01-04T13:03:22.707Z,469.2
2019-01-04T13:04:25.133Z,468.6
2019-01-04T13:05:27.564Z,468.7
2019-01-04T13:06:29.992Z,468.2
2019-01-04T13:07:32.453Z,468.5
2019-01-04T13:08:34.881Z,468.3
2019-01-04T13:09:37.042Z,468.2
2019-01-04T13:10:39.475Z,467.7
2019-01-04T13:11:41.623Z,468.1
2019-01-04T13:12:44.055Z,468.2
2019-01-04T13:13:46.479Z,468.3
2019-01-04T13:14:48.635Z,468.6
2019-01-04T13:15:50.793Z,468.3
2019-01-04T13:16:52.973Z,468.2
2019-01-04T13:17:54.865Z,468.7
2019-01-04T13:18:57.345Z,468.5
2019-01-04T13:19:59.775Z,468.8
2019-01-04T13:21:02.208Z,468.9
2019-01-04T13:22:04.115Z,469.3
2019-01-04T13:23:06.565Z,469.3
2019-01-04T13:24:08.478Z,469.1
2019-01-04T13:25:10.899Z,469
2019-01-04T13:26:13.337Z,469.4
2019-01-04T13:27:15.519Z,469.3
2019-01-04T13:28:17.651Z,469.5
2019-01-04T13:29:20.085Z,469.2
2019-01-04T13:30:22.247Z,469.2